Northwest, Indiana
Current Conditions -  °F | °C
As of 4:35 PM on Saturday 22 Nov 2014 (Local Time) from KDCY Reporting Station
Scattered Clouds Scattered Clouds  
Wind Chill: 59°   Ceiling: Unl
Heat Index: 59°   Visibility: 10mi
Dew Point: 43°   Wind: 13mph
Humidity: 55%   Direction: 200°SSW
Pressure: 30.05"   Gusts: 22mph
Location:  38.6165°N, 86.6265°W
Report Text: KDCY 222135Z AUTO 20011G19KT 10SM SCT060 15/06 A3005 RMK AO2 T01480059
Loading
Personal Weather Stations






























Interactive Weather Map New forecast layout! Learn more

10-Day Weather Forecast

Advertisements
Track Severe Weather on mobile